Atlanta, Indiana
Current Conditions -  °F | °C
As of 8:15 PM on Tuesday 25 Nov 2014 (Local Time) from KTYQ Reporting Station
Overcast Overcast  
Wind Chill: 22°   Ceiling: 1400
Heat Index: 28°   Visibility: 10mi
Dew Point: 21°   Wind: 5mph
Humidity: 77%   Direction: 210°SSW
Pressure: 30.2"   Gusts: NA
Location:  40.22°N, 86.03°W
Report Text: KTYQ 260115Z AUTO 21004KT 10SM OVC014 M02/M06 A3020 RMK AO2 T10251061
Loading
Personal Weather Stations






























Interactive Weather Map New forecast layout! Learn more

10-Day Weather Forecast

Advertisements
Track Severe Weather on mobile